createdAt,value
2022-11-12T00:01:10.253Z,7.55
2022-11-12T00:03:37.378Z,7.10
2022-11-12T00:06:04.435Z,8.13
2022-11-12T00:08:31.724Z,7.28
2022-11-12T00:10:58.826Z,6.78
2022-11-12T00:13:25.895Z,7.07
2022-11-12T00:15:53.039Z,7.40
2022-11-12T00:18:20.424Z,6.68
2022-11-12T00:20:47.513Z,7.85
2022-11-12T00:23:14.619Z,7.43
2022-11-12T00:25:41.687Z,7.13
2022-11-12T00:28:08.754Z,7.07
2022-11-12T00:30:36.861Z,6.88
2022-11-12T00:33:04.091Z,6.90
2022-11-12T00:35:31.252Z,6.55
2022-11-12T00:37:58.327Z,6.60
2022-11-12T00:40:25.384Z,7.07
2022-11-12T00:42:52.460Z,6.60
2022-11-12T00:45:19.541Z,6.63
2022-11-12T00:47:46.602Z,6.70
2022-11-12T00:50:15.937Z,7.60
2022-11-12T00:52:43.082Z,6.53
2022-11-12T00:55:10.210Z,6.45
2022-11-12T00:57:37.307Z,6.43
2022-11-12T01:00:04.450Z,6.32
2022-11-12T01:02:32.325Z,6.47
2022-11-12T01:05:00.719Z,6.65
2022-11-12T01:07:27.782Z,6.75
2022-11-12T01:09:54.868Z,6.80
2022-11-12T01:12:21.939Z,6.50
2022-11-12T01:14:49.006Z,6.38
2022-11-12T01:17:16.070Z,6.55
2022-11-12T01:19:43.133Z,6.30
2022-11-12T01:22:10.221Z,6.40
2022-11-12T01:24:37.296Z,6.50
2022-11-12T01:27:04.391Z,6.55
2022-11-12T01:29:31.582Z,6.32
2022-11-12T01:31:58.636Z,6.70
2022-11-12T01:34:25.698Z,6.65
2022-11-12T01:36:52.831Z,5.93
2022-11-12T01:39:19.895Z,6.18
2022-11-12T01:41:47.026Z,6.40
2022-11-12T01:44:14.161Z,6.10
2022-11-12T01:46:41.295Z,6.05
2022-11-12T01:49:08.375Z,5.80
2022-11-12T01:51:35.481Z,6.00
2022-11-12T01:54:02.538Z,5.97
2022-11-12T01:56:29.611Z,5.72
2022-11-12T10:23:17.910Z,2.70
2022-11-12T10:25:45.034Z,2.78
2022-11-12T10:28:12.147Z,3.00
2022-11-12T10:30:39.247Z,2.55
2022-11-12T10:33:06.304Z,2.78
2022-11-12T10:35:33.465Z,2.83
2022-11-12T10:38:00.522Z,2.83
2022-11-12T10:40:28.034Z,2.90
2022-11-12T10:42:55.130Z,2.85
2022-11-12T10:45:22.229Z,2.70
2022-11-12T10:47:49.287Z,2.70
2022-11-12T10:50:16.686Z,2.80
2022-11-12T10:52:43.756Z,2.90
2022-11-12T10:55:10.812Z,2.80
2022-11-12T10:57:37.873Z,2.65
2022-11-12T11:00:05.010Z,2.70
2022-11-12T11:02:32.102Z,2.90
2022-11-12T11:04:59.166Z,2.70
2022-11-12T11:07:26.234Z,3.10
2022-11-12T11:09:53.486Z,3.40
2022-11-12T11:12:20.546Z,2.83
2022-11-12T11:14:47.646Z,2.90
2022-11-12T11:17:14.957Z,3.38
2022-11-12T11:19:42.106Z,2.75
2022-11-12T11:22:09.181Z,3.25
2022-11-12T11:24:39.021Z,3.00
2022-11-12T11:27:06.127Z,3.30
2022-11-12T11:29:33.206Z,3.40
2022-11-12T11:32:00.276Z,3.33
2022-11-12T11:34:27.352Z,3.40
2022-11-12T11:36:54.408Z,3.38
2022-11-12T11:39:21.481Z,3.00
2022-11-12T11:41:48.555Z,3.00
2022-11-12T11:44:15.851Z,3.35
2022-11-12T11:46:42.981Z,3.00
2022-11-12T11:49:10.037Z,3.28
2022-11-12T11:51:37.784Z,3.17
2022-11-12T11:54:04.853Z,3.08
2022-11-12T11:56:31.928Z,3.03
2022-11-12T11:58:58.985Z,2.88
2022-11-12T12:01:26.121Z,3.00
2022-11-12T12:03:53.278Z,2.97
2022-11-12T12:06:20.644Z,3.03
2022-11-12T12:08:47.749Z,3.00
2022-11-12T12:11:14.813Z,2.90
2022-11-12T12:13:41.906Z,2.85
2022-11-12T12:16:08.980Z,2.60
2022-11-12T12:18:36.039Z,2.78
2022-11-12T12:21:03.104Z,2.80
2022-11-12T12:23:30.209Z,3.00
2022-11-12T12:26:00.262Z,3.20
2022-11-12T12:28:28.020Z,3.00
2022-11-12T12:30:55.260Z,3.33
2022-11-12T12:33:22.323Z,3.10
2022-11-12T12:35:49.385Z,2.90
2022-11-12T12:38:16.477Z,3.03
2022-11-12T12:40:43.571Z,3.03
2022-11-12T12:43:10.646Z,3.20
2022-11-12T12:45:37.742Z,2.97
2022-11-12T12:48:04.830Z,3.25
2022-11-12T12:50:31.887Z,3.20
2022-11-12T12:52:58.946Z,2.78
2022-11-12T12:55:26.022Z,2.90
2022-11-12T12:57:53.091Z,3.08
2022-11-12T13:00:20.162Z,2.90
2022-11-12T13:02:47.494Z,2.90
2022-11-12T13:05:14.557Z,3.10
2022-11-12T13:07:41.787Z,3.00
2022-11-12T13:10:08.968Z,2.80
2022-11-12T13:12:36.047Z,3.00
2022-11-12T13:15:03.152Z,3.03
2022-11-12T13:17:30.318Z,3.00
2022-11-12T13:19:57.374Z,2.95
2022-11-12T13:22:24.450Z,2.83
2022-11-12T13:24:51.560Z,2.75
2022-11-12T13:27:18.751Z,2.88
2022-11-12T13:29:45.895Z,2.83
2022-11-12T13:32:13.001Z,3.13
2022-11-12T13:34:40.066Z,3.05
2022-11-12T13:37:07.177Z,2.60
2022-11-12T13:39:34.247Z,2.90
2022-11-12T13:42:20.656Z,2.78
2022-11-12T13:44:50.911Z,3.05
2022-11-12T13:47:20.639Z,2.90
2022-11-12T13:49:47.737Z,2.75
2022-11-12T13:52:15.159Z,2.60
2022-11-12T13:54:42.236Z,2.67
2022-11-12T13:57:14.188Z,2.47
2022-11-12T13:59:41.561Z,2.80
2022-11-12T14:02:08.659Z,2.67
2022-11-12T14:04:35.721Z,2.70
2022-11-12T14:07:02.864Z,2.83
2022-11-12T14:09:29.980Z,2.78
2022-11-12T14:11:57.250Z,2.80
2022-11-12T14:14:24.339Z,2.97
2022-11-12T14:16:51.393Z,3.00
2022-11-12T14:19:18.605Z,2.50
2022-11-12T14:21:45.673Z,2.90
2022-11-12T14:24:13.137Z,2.63
2022-11-12T14:26:40.196Z,2.75
2022-11-12T14:29:07.264Z,2.80
2022-11-12T14:31:34.476Z,2.67
2022-11-12T14:34:01.573Z,2.90
2022-11-12T14:36:30.627Z,2.92
2022-11-12T14:38:57.783Z,2.60
2022-11-12T14:41:24.846Z,2.88
2022-11-12T14:44:07.454Z,2.70
2022-11-12T14:46:38.944Z,3.42
2022-11-12T14:49:06.019Z,3.17
2022-11-12T14:51:33.117Z,2.97
2022-11-12T14:54:00.185Z,2.80
2022-11-12T14:56:30.049Z,3.30
2022-11-12T14:59:01.395Z,3.03
2022-11-12T15:02:08.926Z,3.00
2022-11-12T15:04:15.527Z,3.15
2022-11-12T15:06:42.651Z,3.00
2022-11-12T15:09:09.733Z,3.45
2022-11-12T15:11:36.797Z,3.72
2022-11-12T15:14:04.188Z,3.30
2022-11-12T15:16:31.352Z,3.20
2022-11-12T15:18:58.406Z,3.25
2022-11-12T15:21:25.458Z,3.40
2022-11-12T15:23:52.553Z,3.40
2022-11-12T15:26:19.617Z,3.45
2022-11-12T15:28:46.684Z,3.33
2022-11-12T15:31:13.828Z,3.78
2022-11-12T15:33:40.893Z,3.55
2022-11-12T15:36:07.940Z,3.53
2022-11-12T15:38:40.822Z,3.35
2022-11-12T15:41:07.875Z,3.75
2022-11-12T15:43:34.944Z,3.50
2022-11-12T15:46:02.005Z,3.80
2022-11-12T15:48:29.126Z,3.60
2022-11-12T15:50:56.193Z,3.50
2022-11-12T15:53:23.242Z,3.60
2022-11-12T15:55:50.334Z,3.80
2022-11-12T15:58:17.476Z,3.47
2022-11-12T16:00:44.614Z,3.20
2022-11-12T16:03:11.954Z,3.92
2022-11-12T16:05:39.013Z,3.85
2022-11-12T16:08:06.179Z,4.00
2022-11-12T16:10:33.293Z,3.72
2022-11-12T16:13:00.367Z,3.50
2022-11-12T16:15:27.526Z,3.70
2022-11-12T16:17:55.990Z,3.90
2022-11-12T16:20:23.237Z,3.90
2022-11-12T16:22:50.449Z,3.70
2022-11-12T16:25:17.606Z,3.65
2022-11-12T16:27:44.662Z,4.13
2022-11-12T16:30:11.732Z,3.75
2022-11-12T16:32:38.811Z,4.15
2022-11-12T16:35:05.874Z,3.70
2022-11-12T16:37:32.965Z,3.70
2022-11-12T16:40:00.028Z,3.58
2022-11-12T16:42:27.086Z,3.90
2022-11-12T16:44:54.226Z,3.70
2022-11-12T16:47:21.282Z,4.00
2022-11-12T16:49:48.338Z,3.97
2022-11-12T16:52:15.397Z,3.88
2022-11-12T16:54:42.467Z,4.03
2022-11-12T16:57:09.532Z,4.13
2022-11-12T16:59:36.636Z,4.20
2022-11-12T17:02:03.720Z,3.83
2022-11-12T17:04:30.909Z,3.63
2022-11-12T17:06:58.025Z,3.97
2022-11-12T17:09:25.110Z,4.03
2022-11-12T17:11:52.479Z,4.25
2022-11-12T17:14:24.226Z,3.75
2022-11-12T17:16:54.162Z,3.88
2022-11-12T17:19:21.331Z,3.97
2022-11-12T17:21:48.431Z,4.00
2022-11-12T17:24:15.610Z,4.57
2022-11-12T17:26:42.694Z,4.88
2022-11-12T17:29:09.858Z,4.60
2022-11-12T17:31:36.982Z,4.80
2022-11-12T17:34:04.065Z,4.40
2022-11-12T17:36:31.979Z,4.28
2022-11-12T17:38:59.060Z,4.90
2022-11-12T17:41:26.257Z,3.92
2022-11-12T17:43:53.373Z,4.22
2022-11-12T17:46:20.482Z,4.60
2022-11-12T17:48:47.570Z,4.43
2022-11-12T17:51:14.698Z,4.53
2022-11-12T17:53:41.794Z,4.88
2022-11-12T17:56:08.861Z,4.40
2022-11-12T17:58:35.986Z,4.32
2022-11-12T18:01:03.114Z,4.72
2022-11-12T18:03:30.409Z,5.00
2022-11-12T18:05:57.631Z,4.82
2022-11-12T18:08:24.690Z,5.68
2022-11-12T18:10:51.769Z,4.80
2022-11-12T18:13:18.826Z,4.72
2022-11-12T18:15:45.970Z,4.95
2022-11-12T18:18:13.087Z,5.13
2022-11-12T18:20:41.078Z,4.88
2022-11-12T18:23:08.162Z,4.80
2022-11-12T18:25:35.309Z,4.78
2022-11-12T18:28:02.377Z,5.00
2022-11-12T18:30:29.642Z,5.22
2022-11-12T18:32:56.711Z,5.60
2022-11-12T18:35:28.648Z,5.28
2022-11-12T18:37:57.480Z,4.97
2022-11-12T18:40:24.617Z,5.22
2022-11-12T18:42:51.681Z,4.97
2022-11-12T18:45:18.800Z,5.45
2022-11-12T18:47:45.866Z,5.90
2022-11-12T18:50:12.959Z,5.68
2022-11-12T18:52:41.329Z,5.93
2022-11-12T18:55:08.408Z,5.53
2022-11-12T18:57:35.494Z,5.70
2022-11-12T19:00:02.594Z,5.85
2022-11-12T19:02:29.701Z,5.22
2022-11-12T19:04:56.776Z,5.75
2022-11-12T19:07:23.866Z,5.55
2022-11-12T19:09:51.002Z,5.78
2022-11-12T19:12:18.065Z,5.45
2022-11-12T19:14:45.121Z,5.78
2022-11-12T19:17:12.250Z,5.50
2022-11-12T19:19:39.338Z,5.65
2022-11-12T19:22:06.522Z,5.78
2022-11-12T19:24:33.615Z,5.70
2022-11-12T19:27:00.716Z,5.55
2022-11-12T19:29:27.794Z,5.38
2022-11-12T19:31:54.848Z,6.07
2022-11-12T19:34:21.906Z,5.60
2022-11-12T19:36:56.607Z,5.38
2022-11-12T19:39:36.006Z,5.55
2022-11-12T19:42:03.953Z,5.50
2022-11-12T19:44:31.055Z,5.72
2022-11-12T19:46:58.180Z,5.68
2022-11-12T19:49:25.233Z,6.00
2022-11-12T19:51:52.291Z,6.13
2022-11-12T19:54:19.353Z,5.72
2022-11-12T19:56:47.798Z,6.07
2022-11-12T19:59:14.849Z,5.93
2022-11-12T20:01:42.257Z,5.80
2022-11-12T20:04:09.416Z,5.70
2022-11-12T20:06:36.525Z,5.80
2022-11-12T20:09:08.769Z,5.97
2022-11-12T20:11:35.847Z,5.72
2022-11-12T20:14:02.927Z,6.05
2022-11-12T20:16:30.063Z,6.70
2022-11-12T20:18:57.113Z,5.60
2022-11-12T20:21:24.246Z,5.80
2022-11-12T20:23:51.334Z,6.05
2022-11-12T20:26:18.460Z,6.70
2022-11-12T20:28:45.510Z,6.10
2022-11-12T20:31:12.598Z,6.47
2022-11-12T20:33:42.443Z,6.30
2022-11-12T20:36:09.834Z,6.30
2022-11-12T20:38:37.545Z,6.40
2022-11-12T20:41:05.737Z,6.50
2022-11-12T20:43:32.818Z,6.45
2022-11-12T20:45:59.951Z,6.35
2022-11-12T20:48:27.306Z,6.47
2022-11-12T20:51:21.668Z,6.95
2022-11-12T20:53:41.778Z,6.65
2022-11-12T20:56:09.101Z,6.53
2022-11-12T20:58:36.173Z,6.90
2022-11-12T21:01:04.968Z,6.30
2022-11-12T21:03:32.067Z,6.80
2022-11-12T21:05:59.167Z,6.95
2022-11-12T21:08:26.577Z,6.40
2022-11-12T21:10:53.898Z,6.45
2022-11-12T21:13:21.891Z,6.53
2022-11-12T21:15:48.989Z,6.65
2022-11-12T21:18:16.058Z,6.75
2022-11-12T21:20:43.146Z,6.88
2022-11-12T21:23:10.208Z,7.07
2022-11-12T21:25:37.279Z,6.80
2022-11-12T21:28:04.332Z,7.43
2022-11-12T21:30:31.397Z,7.03
2022-11-12T21:32:58.458Z,6.78
2022-11-12T21:35:25.537Z,6.90
2022-11-12T21:37:52.594Z,6.75
2022-11-12T21:40:19.733Z,7.22
2022-11-12T21:42:46.875Z,6.90
2022-11-12T21:45:13.970Z,7.32
2022-11-12T21:47:41.037Z,7.22
2022-11-12T21:50:08.111Z,7.25
2022-11-12T21:52:35.181Z,7.25
2022-11-12T21:55:02.243Z,7.28
2022-11-12T21:57:29.334Z,7.63
2022-11-12T22:00:08.193Z,7.55
2022-11-12T22:02:43.599Z,7.63
2022-11-12T22:05:10.714Z,7.50
2022-11-12T22:07:37.766Z,7.07
2022-11-12T22:10:04.830Z,7.55
2022-11-12T22:12:31.883Z,7.47
2022-11-12T22:14:58.936Z,7.50
2022-11-12T22:17:25.991Z,7.57
2022-11-12T22:19:53.077Z,6.93
2022-11-12T22:22:20.150Z,7.35
2022-11-12T22:24:47.213Z,7.22
2022-11-12T22:27:14.271Z,7.15
2022-11-12T22:29:41.342Z,7.13
2022-11-12T22:32:08.464Z,7.57
2022-11-12T22:34:35.540Z,7.40
2022-11-12T22:37:02.602Z,7.32
2022-11-12T22:39:29.670Z,7.60
2022-11-12T22:41:56.736Z,7.45
2022-11-12T22:44:23.794Z,7.20
2022-11-12T22:46:50.908Z,7.43
2022-11-12T22:49:17.982Z,7.10
2022-11-12T22:51:45.044Z,7.25
2022-11-12T22:54:15.668Z,7.13
2022-11-12T22:56:42.745Z,7.32
2022-11-12T22:59:09.815Z,7.80
2022-11-12T23:01:36.939Z,7.40
2022-11-12T23:04:04.057Z,7.22
2022-11-12T23:06:31.157Z,7.60
2022-11-12T23:08:59.137Z,7.65
2022-11-12T23:11:26.286Z,7.20
2022-11-12T23:13:53.349Z,7.50
2022-11-12T23:16:20.435Z,7.45
2022-11-12T23:18:47.522Z,7.57
2022-11-12T23:21:14.595Z,7.50
2022-11-12T23:23:41.696Z,7.55
2022-11-12T23:26:08.768Z,7.93
2022-11-12T23:28:35.867Z,7.25
2022-11-12T23:31:02.975Z,7.90
2022-11-12T23:33:30.043Z,7.80
2022-11-12T23:35:57.116Z,7.32
2022-11-12T23:38:24.243Z,7.75
2022-11-12T23:40:51.433Z,7.95
2022-11-12T23:43:18.513Z,7.82
2022-11-12T23:45:45.572Z,7.68
2022-11-12T23:48:12.630Z,7.88
2022-11-12T23:50:39.690Z,8.05
2022-11-12T23:53:06.763Z,8.23
2022-11-12T23:55:38.257Z,8.13
2022-11-12T23:58:05.693Z,7.43
